sensor_id;sensor_type;location;lat;lon;timestamp;temperature;humidity
8402;DHT22;4238;48.404;9.498;2022-12-11T00:02:03;-1.80;55.70
8402;DHT22;4238;48.404;9.498;2022-12-11T00:04:30;-1.70;60.00
8402;DHT22;4238;48.404;9.498;2022-12-11T00:06:58;-1.70;62.10
8402;DHT22;4238;48.404;9.498;2022-12-11T00:09:25;-1.60;59.90
8402;DHT22;4238;48.404;9.498;2022-12-11T00:11:52;-1.60;39.10
8402;DHT22;4238;48.404;9.498;2022-12-11T00:14:19;-1.60;42.70
8402;DHT22;4238;48.404;9.498;2022-12-11T00:16:46;-1.70;34.40
8402;DHT22;4238;48.404;9.498;2022-12-11T00:19:13;-1.80;45.10
8402;DHT22;4238;48.404;9.498;2022-12-11T00:21:40;-1.70;51.20
8402;DHT22;4238;48.404;9.498;2022-12-11T00:24:09;-1.60;48.90
8402;DHT22;4238;48.404;9.498;2022-12-11T00:26:36;-1.80;41.50
8402;DHT22;4238;48.404;9.498;2022-12-11T00:29:03;-1.90;53.50
8402;DHT22;4238;48.404;9.498;2022-12-11T00:31:30;-2.10;47.70
8402;DHT22;4238;48.404;9.498;2022-12-11T00:33:57;-2.10;56.10
8402;DHT22;4238;48.404;9.498;2022-12-11T00:36:25;-2.30;62.70
8402;DHT22;4238;48.404;9.498;2022-12-11T00:38:53;-2.20;58.30
8402;DHT22;4238;48.404;9.498;2022-12-11T00:41:22;-2.20;51.80
8402;DHT22;4238;48.404;9.498;2022-12-11T00:43:49;-2.30;63.00
8402;DHT22;4238;48.404;9.498;2022-12-11T00:46:16;-2.20;63.50
8402;DHT22;4238;48.404;9.498;2022-12-11T00:48:44;-2.20;59.10
8402;DHT22;4238;48.404;9.498;2022-12-11T00:51:13;-2.20;65.20
8402;DHT22;4238;48.404;9.498;2022-12-11T00:53:39;-2.30;40.50
8402;DHT22;4238;48.404;9.498;2022-12-11T00:56:12;-2.30;49.20
8402;DHT22;4238;48.404;9.498;2022-12-11T00:58:40;-2.30;53.30
8402;DHT22;4238;48.404;9.498;2022-12-11T01:01:08;-2.40;28.00
8402;DHT22;4238;48.404;9.498;2022-12-11T01:03:37;-2.40;34.20
8402;DHT22;4238;48.404;9.498;2022-12-11T01:06:05;-2.40;35.30
8402;DHT22;4238;48.404;9.498;2022-12-11T01:08:32;-2.20;47.30
8402;DHT22;4238;48.404;9.498;2022-12-11T01:11:03;-2.20;19.70
8402;DHT22;4238;48.404;9.498;2022-12-11T01:13:30;-2.30;29.90
8402;DHT22;4238;48.404;9.498;2022-12-11T01:15:58;-2.20;42.50
8402;DHT22;4238;48.404;9.498;2022-12-11T01:18:25;-2.20;44.00
8402;DHT22;4238;48.404;9.498;2022-12-11T01:20:52;-2.10;39.00
8402;DHT22;4238;48.404;9.498;2022-12-11T01:23:20;-2.10;30.70
8402;DHT22;4238;48.404;9.498;2022-12-11T01:25:47;-1.90;39.20
8402;DHT22;4238;48.404;9.498;2022-12-11T01:28:14;-2.00;36.90
8402;DHT22;4238;48.404;9.498;2022-12-11T01:30:41;-2.10;31.80
8402;DHT22;4238;48.404;9.498;2022-12-11T01:33:10;-2.20;48.90
8402;DHT22;4238;48.404;9.498;2022-12-11T01:35:38;-2.00;52.80
8402;DHT22;4238;48.404;9.498;2022-12-11T01:38:05;-2.00;49.00
8402;DHT22;4238;48.404;9.498;2022-12-11T01:40:32;-1.80;39.30
8402;DHT22;4238;48.404;9.498;2022-12-11T01:42:59;-1.80;18.70
8402;DHT22;4238;48.404;9.498;2022-12-11T01:45:38;-1.90;22.20
8402;DHT22;4238;48.404;9.498;2022-12-11T01:48:10;-1.80;25.40
8402;DHT22;4238;48.404;9.498;2022-12-11T01:50:41;-1.90;17.70
8402;DHT22;4238;48.404;9.498;2022-12-11T01:53:12;-2.10;22.70
8402;DHT22;4238;48.404;9.498;2022-12-11T01:55:40;-2.10;25.40
8402;DHT22;4238;48.404;9.498;2022-12-11T01:58:07;-2.10;39.90
8402;DHT22;4238;48.404;9.498;2022-12-11T02:00:36;-2.10;39.80
8402;DHT22;4238;48.404;9.498;2022-12-11T02:03:04;-2.10;50.40
8402;DHT22;4238;48.404;9.498;2022-12-11T02:05:32;-2.10;44.50
8402;DHT22;4238;48.404;9.498;2022-12-11T02:08:01;-2.00;48.20
8402;DHT22;4238;48.404;9.498;2022-12-11T02:10:36;-1.90;43.90
8402;DHT22;4238;48.404;9.498;2022-12-11T02:13:09;-1.80;40.60
8402;DHT22;4238;48.404;9.498;2022-12-11T02:15:45;-1.70;38.50
8402;DHT22;4238;48.404;9.498;2022-12-11T02:18:19;-1.70;35.90
8402;DHT22;4238;48.404;9.498;2022-12-11T02:20:54;-1.70;32.30
8402;DHT22;4238;48.404;9.498;2022-12-11T02:23:38;-1.70;33.80
8402;DHT22;4238;48.404;9.498;2022-12-11T02:26:18;-1.80;11.70
8402;DHT22;4238;48.404;9.498;2022-12-11T02:28:52;-1.70;15.00
8402;DHT22;4238;48.404;9.498;2022-12-11T02:31:23;-1.70;7.90
8402;DHT22;4238;48.404;9.498;2022-12-11T02:33:55;-1.80;1.00
8402;DHT22;4238;48.404;9.498;2022-12-11T02:36:28;-1.80;3.50
8402;DHT22;4238;48.404;9.498;2022-12-11T02:38:56;-1.80;17.80
8402;DHT22;4238;48.404;9.498;2022-12-11T02:41:25;-1.80;22.20
8402;DHT22;4238;48.404;9.498;2022-12-11T02:43:55;-1.80;17.50
8402;DHT22;4238;48.404;9.498;2022-12-11T02:46:24;-1.80;19.20
8402;DHT22;4238;48.404;9.498;2022-12-11T02:48:53;-1.90;15.80
8402;DHT22;4238;48.404;9.498;2022-12-11T02:51:24;-2.00;21.50
8402;DHT22;4238;48.404;9.498;2022-12-11T02:53:56;-2.10;33.50
8402;DHT22;4238;48.404;9.498;2022-12-11T02:56:28;-2.00;35.30
8402;DHT22;4238;48.404;9.498;2022-12-11T02:58:59;-1.90;30.30
8402;DHT22;4238;48.404;9.498;2022-12-11T03:01:28;-1.90;24.70
8402;DHT22;4238;48.404;9.498;2022-12-11T03:03:57;-1.90;23.20
8402;DHT22;4238;48.404;9.498;2022-12-11T03:06:31;-1.80;16.90
8402;DHT22;4238;48.404;9.498;2022-12-11T03:08:58;-1.80;19.30
8402;DHT22;4238;48.404;9.498;2022-12-11T03:11:25;-1.70;16.50
8402;DHT22;4238;48.404;9.498;2022-12-11T03:13:52;-1.80;20.80
8402;DHT22;4238;48.404;9.498;2022-12-11T03:16:28;-1.80;23.80
8402;DHT22;4238;48.404;9.498;2022-12-11T03:19:05;-1.70;27.10
8402;DHT22;4238;48.404;9.498;2022-12-11T03:21:37;-1.80;23.50
8402;DHT22;4238;48.404;9.498;2022-12-11T03:24:09;-1.80;32.00
8402;DHT22;4238;48.404;9.498;2022-12-11T03:26:43;-1.80;31.30
8402;DHT22;4238;48.404;9.498;2022-12-11T03:29:16;-1.80;31.50
8402;DHT22;4238;48.404;9.498;2022-12-11T03:31:49;-1.80;34.90
8402;DHT22;4238;48.404;9.498;2022-12-11T03:34:24;-1.70;30.50
8402;DHT22;4238;48.404;9.498;2022-12-11T03:36:54;-1.70;32.20
8402;DHT22;4238;48.404;9.498;2022-12-11T03:39:25;-1.70;32.20
8402;DHT22;4238;48.404;9.498;2022-12-11T03:41:55;-1.80;33.10
8402;DHT22;4238;48.404;9.498;2022-12-11T03:44:23;-1.80;36.80
8402;DHT22;4238;48.404;9.498;2022-12-11T03:46:53;-1.70;30.00
8402;DHT22;4238;48.404;9.498;2022-12-11T03:49:23;-1.70;27.90
8402;DHT22;4238;48.404;9.498;2022-12-11T03:51:53;-1.70;30.60
8402;DHT22;4238;48.404;9.498;2022-12-11T03:54:23;-1.70;28.40
8402;DHT22;4238;48.404;9.498;2022-12-11T03:56:53;-1.70;29.20
8402;DHT22;4238;48.404;9.498;2022-12-11T03:59:21;-1.60;27.50
8402;DHT22;4238;48.404;9.498;2022-12-11T04:01:48;-1.70;27.40
8402;DHT22;4238;48.404;9.498;2022-12-11T04:04:17;-1.70;31.70
8402;DHT22;4238;48.404;9.498;2022-12-11T04:06:44;-1.60;25.40
8402;DHT22;4238;48.404;9.498;2022-12-11T04:09:11;-1.80;25.20
8402;DHT22;4238;48.404;9.498;2022-12-11T04:11:38;-1.80;11.10
8402;DHT22;4238;48.404;9.498;2022-12-11T04:14:08;-1.80;16.80
8402;DHT22;4238;48.404;9.498;2022-12-11T04:16:54;-1.70;21.10
8402;DHT22;4238;48.404;9.498;2022-12-11T04:19:23;-1.70;18.80
8402;DHT22;4238;48.404;9.498;2022-12-11T04:22:08;-1.90;8.20
8402;DHT22;4238;48.404;9.498;2022-12-11T04:24:52;-2.10;11.20
8402;DHT22;4238;48.404;9.498;2022-12-11T04:27:19;-2.40;26.40
8402;DHT22;4238;48.404;9.498;2022-12-11T04:30:00;-2.40;44.70
8402;DHT22;4238;48.404;9.498;2022-12-11T04:32:28;-2.20;37.90
8402;DHT22;4238;48.404;9.498;2022-12-11T04:34:56;-2.20;30.10
8402;DHT22;4238;48.404;9.498;2022-12-11T04:37:23;-2.30;24.80
8402;DHT22;4238;48.404;9.498;2022-12-11T04:39:50;-2.50;24.00
8402;DHT22;4238;48.404;9.498;2022-12-11T04:42:17;-2.50;36.00
8402;DHT22;4238;48.404;9.498;2022-12-11T04:44:43;-2.60;32.30
8402;DHT22;4238;48.404;9.498;2022-12-11T04:47:11;-2.70;33.90
8402;DHT22;4238;48.404;9.498;2022-12-11T04:49:37;-2.80;37.00
8402;DHT22;4238;48.404;9.498;2022-12-11T04:52:06;-2.90;46.80
8402;DHT22;4238;48.404;9.498;2022-12-11T04:54:33;-3.00;54.30
8402;DHT22;4238;48.404;9.498;2022-12-11T04:56:59;-3.10;49.30
8402;DHT22;4238;48.404;9.498;2022-12-11T04:59:26;-3.10;57.70
8402;DHT22;4238;48.404;9.498;2022-12-11T05:01:53;-3.20;36.30
8402;DHT22;4238;48.404;9.498;2022-12-11T05:04:20;-3.40;33.20
8402;DHT22;4238;48.404;9.498;2022-12-11T05:06:48;-3.70;37.00
8402;DHT22;4238;48.404;9.498;2022-12-11T05:09:19;-3.90;50.70
8402;DHT22;4238;48.404;9.498;2022-12-11T05:11:46;-4.10;48.00
8402;DHT22;4238;48.404;9.498;2022-12-11T05:14:13;-4.30;26.10
8402;DHT22;4238;48.404;9.498;2022-12-11T05:16:40;-4.50;24.80
8402;DHT22;4238;48.404;9.498;2022-12-11T05:19:07;-4.70;21.20
8402;DHT22;4238;48.404;9.498;2022-12-11T05:21:33;-4.90;27.00
8402;DHT22;4238;48.404;9.498;2022-12-11T05:24:00;-5.00;40.90
8402;DHT22;4238;48.404;9.498;2022-12-11T05:26:29;-5.00;37.10
8402;DHT22;4238;48.404;9.498;2022-12-11T05:28:55;-5.10;30.20
8402;DHT22;4238;48.404;9.498;2022-12-11T05:31:24;-5.10;26.50
8402;DHT22;4238;48.404;9.498;2022-12-11T05:33:52;-5.20;20.30
8402;DHT22;4238;48.404;9.498;2022-12-11T05:36:21;-5.30;43.20
8402;DHT22;4238;48.404;9.498;2022-12-11T05:38:48;-5.40;35.60
8402;DHT22;4238;48.404;9.498;2022-12-11T05:41:17;-5.40;36.80
8402;DHT22;4238;48.404;9.498;2022-12-11T05:43:46;-5.40;19.20
8402;DHT22;4238;48.404;9.498;2022-12-11T05:46:14;-5.50;33.00
8402;DHT22;4238;48.404;9.498;2022-12-11T05:48:43;-5.50;38.70
8402;DHT22;4238;48.404;9.498;2022-12-11T05:51:11;-5.50;37.60
8402;DHT22;4238;48.404;9.498;2022-12-11T05:53:38;-5.60;38.10
8402;DHT22;4238;48.404;9.498;2022-12-11T05:56:07;-5.70;31.50
8402;DHT22;4238;48.404;9.498;2022-12-11T05:58:35;-5.80;21.60
8402;DHT22;4238;48.404;9.498;2022-12-11T06:01:06;-5.90;25.20
8402;DHT22;4238;48.404;9.498;2022-12-11T06:03:33;-5.90;22.30
8402;DHT22;4238;48.404;9.498;2022-12-11T06:06:01;-6.00;33.70
8402;DHT22;4238;48.404;9.498;2022-12-11T06:08:28;-6.10;59.60
8402;DHT22;4238;48.404;9.498;2022-12-11T06:10:55;-5.80;67.10
8402;DHT22;4238;48.404;9.498;2022-12-11T06:13:22;-5.80;25.70
8402;DHT22;4238;48.404;9.498;2022-12-11T06:15:49;-5.90;23.50
8402;DHT22;4238;48.404;9.498;2022-12-11T06:18:17;-5.90;44.70
8402;DHT22;4238;48.404;9.498;2022-12-11T06:20:44;-5.90;44.30
8402;DHT22;4238;48.404;9.498;2022-12-11T06:23:11;-6.00;37.20
8402;DHT22;4238;48.404;9.498;2022-12-11T06:25:39;-6.10;47.40
8402;DHT22;4238;48.404;9.498;2022-12-11T06:28:06;-6.20;48.00
8402;DHT22;4238;48.404;9.498;2022-12-11T06:30:32;-6.10;42.60
8402;DHT22;4238;48.404;9.498;2022-12-11T06:33:00;-6.20;51.30
8402;DHT22;4238;48.404;9.498;2022-12-11T06:35:28;-6.20;54.20
8402;DHT22;4238;48.404;9.498;2022-12-11T06:37:55;-6.10;55.30
8402;DHT22;4238;48.404;9.498;2022-12-11T06:40:22;-6.10;46.10
8402;DHT22;4238;48.404;9.498;2022-12-11T06:42:49;-6.00;55.00
8402;DHT22;4238;48.404;9.498;2022-12-11T06:45:16;-5.90;55.20
8402;DHT22;4238;48.404;9.498;2022-12-11T06:47:43;-5.80;76.00
8402;DHT22;4238;48.404;9.498;2022-12-11T06:50:09;-5.70;87.40
8402;DHT22;4238;48.404;9.498;2022-12-11T06:52:38;-5.70;55.60
8402;DHT22;4238;48.404;9.498;2022-12-11T06:55:06;-5.80;54.60
8402;DHT22;4238;48.404;9.498;2022-12-11T06:57:33;-5.90;64.60
8402;DHT22;4238;48.404;9.498;2022-12-11T07:00:00;-6.00;63.50
8402;DHT22;4238;48.404;9.498;2022-12-11T07:02:26;-5.70;84.50
8402;DHT22;4238;48.404;9.498;2022-12-11T07:04:53;-5.70;59.00
8402;DHT22;4238;48.404;9.498;2022-12-11T07:07:20;-6.00;75.10
8402;DHT22;4238;48.404;9.498;2022-12-11T07:09:50;-6.00;90.50
8402;DHT22;4238;48.404;9.498;2022-12-11T07:12:16;-6.00;65.80
8402;DHT22;4238;48.404;9.498;2022-12-11T07:14:43;-5.80;94.40
8402;DHT22;4238;48.404;9.498;2022-12-11T07:17:13;-5.60;97.90
8402;DHT22;4238;48.404;9.498;2022-12-11T07:19:40;-5.70;56.80
8402;DHT22;4238;48.404;9.498;2022-12-11T07:22:07;-5.90;46.80
8402;DHT22;4238;48.404;9.498;2022-12-11T07:24:34;-6.00;60.30
8402;DHT22;4238;48.404;9.498;2022-12-11T07:27:03;-6.10;61.00
8402;DHT22;4238;48.404;9.498;2022-12-11T07:29:29;-6.10;53.30
8402;DHT22;4238;48.404;9.498;2022-12-11T07:31:56;-6.20;41.70
8402;DHT22;4238;48.404;9.498;2022-12-11T07:34:23;-6.20;29.50
8402;DHT22;4238;48.404;9.498;2022-12-11T07:36:50;-6.30;42.60
8402;DHT22;4238;48.404;9.498;2022-12-11T07:39:17;-6.30;73.40
8402;DHT22;4238;48.404;9.498;2022-12-11T07:41:44;-6.40;51.30
8402;DHT22;4238;48.404;9.498;2022-12-11T07:44:12;-6.40;23.00
8402;DHT22;4238;48.404;9.498;2022-12-11T07:46:39;-6.50;1.80
8402;DHT22;4238;48.404;9.498;2022-12-11T07:49:07;-6.60;1.00
8402;DHT22;4238;48.404;9.498;2022-12-11T07:51:35;-6.70;1.00
8402;DHT22;4238;48.404;9.498;2022-12-11T07:54:05;-6.70;1.00
8402;DHT22;4238;48.404;9.498;2022-12-11T07:56:32;-6.70;6.80
8402;DHT22;4238;48.404;9.498;2022-12-11T07:59:00;-6.60;17.10
8402;DHT22;4238;48.404;9.498;2022-12-11T08:01:31;-6.70;1.00
8402;DHT22;4238;48.404;9.498;2022-12-11T08:04:00;-6.80;5.70
8402;DHT22;4238;48.404;9.498;2022-12-11T08:06:28;-6.90;1.00
8402;DHT22;4238;48.404;9.498;2022-12-11T08:08:57;-7.20;15.00
8402;DHT22;4238;48.404;9.498;2022-12-11T08:11:24;-7.20;20.80
8402;DHT22;4238;48.404;9.498;2022-12-11T08:13:51;-7.00;35.60
8402;DHT22;4238;48.404;9.498;2022-12-11T08:16:19;-6.50;73.70
8402;DHT22;4238;48.404;9.498;2022-12-11T08:18:47;-6.30;72.90
8402;DHT22;4238;48.404;9.498;2022-12-11T08:21:16;-6.40;40.50
8402;DHT22;4238;48.404;9.498;2022-12-11T08:23:44;-6.40;37.10
8402;DHT22;4238;48.404;9.498;2022-12-11T08:26:13;-6.40;27.30
8402;DHT22;4238;48.404;9.498;2022-12-11T08:28:40;-6.40;30.50
8402;DHT22;4238;48.404;9.498;2022-12-11T08:31:09;-6.50;22.90
8402;DHT22;4238;48.404;9.498;2022-12-11T08:33:38;-6.50;24.30
8402;DHT22;4238;48.404;9.498;2022-12-11T08:36:09;-6.30;41.30
8402;DHT22;4238;48.404;9.498;2022-12-11T08:38:37;-6.10;44.60
8402;DHT22;4238;48.404;9.498;2022-12-11T08:41:07;-5.90;42.40
8402;DHT22;4238;48.404;9.498;2022-12-11T08:43:34;-5.60;26.90
8402;DHT22;4238;48.404;9.498;2022-12-11T08:46:01;-5.50;23.60
8402;DHT22;4238;48.404;9.498;2022-12-11T08:48:28;-5.50;26.80
8402;DHT22;4238;48.404;9.498;2022-12-11T08:50:58;-5.40;30.20
8402;DHT22;4238;48.404;9.498;2022-12-11T08:53:28;-5.50;40.00
8402;DHT22;4238;48.404;9.498;2022-12-11T08:56:00;-5.40;59.00
8402;DHT22;4238;48.404;9.498;2022-12-11T08:58:27;-5.40;53.00
8402;DHT22;4238;48.404;9.498;2022-12-11T09:00:55;-5.40;40.40
8402;DHT22;4238;48.404;9.498;2022-12-11T09:03:23;-5.40;20.60
8402;DHT22;4238;48.404;9.498;2022-12-11T09:05:51;-5.30;35.30
8402;DHT22;4238;48.404;9.498;2022-12-11T09:08:18;-5.00;26.80
8402;DHT22;4238;48.404;9.498;2022-12-11T09:10:46;-5.00;14.30
8402;DHT22;4238;48.404;9.498;2022-12-11T09:13:13;-4.90;41.60
8402;DHT22;4238;48.404;9.498;2022-12-11T09:15:41;-4.50;46.70
8402;DHT22;4238;48.404;9.498;2022-12-11T09:18:08;-4.20;8.50
8402;DHT22;4238;48.404;9.498;2022-12-11T09:20:35;-3.70;1.00
8402;DHT22;4238;48.404;9.498;2022-12-11T09:23:02;-3.10;1.00
8402;DHT22;4238;48.404;9.498;2022-12-11T09:25:29;-2.70;1.00
8402;DHT22;4238;48.404;9.498;2022-12-11T09:27:57;-2.40;1.00
8402;DHT22;4238;48.404;9.498;2022-12-11T09:30:24;-1.80;1.00
8402;DHT22;4238;48.404;9.498;2022-12-11T09:32:51;-1.30;1.00
8402;DHT22;4238;48.404;9.498;2022-12-11T09:35:18;-0.70;99.90
8402;DHT22;4238;48.404;9.498;2022-12-11T09:37:45;-0.90;99.90
8402;DHT22;4238;48.404;9.498;2022-12-11T09:40:12;-1.20;1.00
8402;DHT22;4238;48.404;9.498;2022-12-11T09:42:46;-1.10;1.00
8402;DHT22;4238;48.404;9.498;2022-12-11T09:45:16;-0.90;1.00
8402;DHT22;4238;48.404;9.498;2022-12-11T09:47:45;-0.70;99.90
8402;DHT22;4238;48.404;9.498;2022-12-11T09:50:17;-0.80;99.90
8402;DHT22;4238;48.404;9.498;2022-12-11T09:52:56;-0.80;1.00
8402;DHT22;4238;48.404;9.498;2022-12-11T09:55:33;-0.80;1.00
8402;DHT22;4238;48.404;9.498;2022-12-11T09:58:05;-1.00;1.00
8402;DHT22;4238;48.404;9.498;2022-12-11T10:00:39;-1.00;1.00
8402;DHT22;4238;48.404;9.498;2022-12-11T10:03:22;-0.90;1.00
8402;DHT22;4238;48.404;9.498;2022-12-11T10:05:56;-0.90;1.00
8402;DHT22;4238;48.404;9.498;2022-12-11T10:08:31;-0.80;1.00
8402;DHT22;4238;48.404;9.498;2022-12-11T10:11:08;-0.90;1.00
8402;DHT22;4238;48.404;9.498;2022-12-11T10:13:47;-0.90;1.00
8402;DHT22;4238;48.404;9.498;2022-12-11T10:16:23;-0.90;1.00
8402;DHT22;4238;48.404;9.498;2022-12-11T10:18:58;-0.90;1.00
8402;DHT22;4238;48.404;9.498;2022-12-11T10:21:26;-0.90;1.00
8402;DHT22;4238;48.404;9.498;2022-12-11T10:23:57;-0.80;1.00
8402;DHT22;4238;48.404;9.498;2022-12-11T10:26:27;-0.60;1.00
8402;DHT22;4238;48.404;9.498;2022-12-11T10:28:58;-0.70;1.00
8402;DHT22;4238;48.404;9.498;2022-12-11T10:31:33;-0.50;1.00
8402;DHT22;4238;48.404;9.498;2022-12-11T10:34:07;-0.40;1.00
8402;DHT22;4238;48.404;9.498;2022-12-11T10:36:39;-0.10;1.00
8402;DHT22;4238;48.404;9.498;2022-12-11T10:39:11;-0.10;99.90
8402;DHT22;4238;48.404;9.498;2022-12-11T10:41:41;0.10;99.90
8402;DHT22;4238;48.404;9.498;2022-12-11T10:44:15;0.40;1.00
8402;DHT22;4238;48.404;9.498;2022-12-11T10:46:45;0.80;99.90
8402;DHT22;4238;48.404;9.498;2022-12-11T10:49:23;1.20;99.90
8402;DHT22;4238;48.404;9.498;2022-12-11T10:51:51;1.40;1.00
8402;DHT22;4238;48.404;9.498;2022-12-11T10:54:29;1.30;1.00
8402;DHT22;4238;48.404;9.498;2022-12-11T10:56:57;1.40;99.90
8402;DHT22;4238;48.404;9.498;2022-12-11T10:59:29;1.50;1.00
8402;DHT22;4238;48.404;9.498;2022-12-11T11:01:58;1.40;1.00
8402;DHT22;4238;48.404;9.498;2022-12-11T11:04:29;1.50;1.00
8402;DHT22;4238;48.404;9.498;2022-12-11T11:07:01;1.50;99.90
8402;DHT22;4238;48.404;9.498;2022-12-11T11:09:30;1.40;99.90
8402;DHT22;4238;48.404;9.498;2022-12-11T11:11:59;1.20;1.00
8402;DHT22;4238;48.404;9.498;2022-12-11T11:14:26;1.20;1.00
8402;DHT22;4238;48.404;9.498;2022-12-11T11:16:55;1.30;1.00
8402;DHT22;4238;48.404;9.498;2022-12-11T11:19:28;1.20;1.00
8402;DHT22;4238;48.404;9.498;2022-12-11T11:21:58;1.10;1.00
8402;DHT22;4238;48.404;9.498;2022-12-11T11:24:33;1.10;55.70
8402;DHT22;4238;48.404;9.498;2022-12-11T11:27:01;1.10;1.00
8402;DHT22;4238;48.404;9.498;2022-12-11T11:29:30;1.00;1.00
8402;DHT22;4238;48.404;9.498;2022-12-11T11:32:11;1.10;1.00
8402;DHT22;4238;48.404;9.498;2022-12-11T11:34:41;1.10;1.00
8402;DHT22;4238;48.404;9.498;2022-12-11T11:37:22;1.10;40.30
8402;DHT22;4238;48.404;9.498;2022-12-11T11:39:53;1.00;1.00
8402;DHT22;4238;48.404;9.498;2022-12-11T11:42:24;0.80;99.90
8402;DHT22;4238;48.404;9.498;2022-12-11T11:45:01;0.60;26.50
8402;DHT22;4238;48.404;9.498;2022-12-11T11:47:33;0.80;1.00
8402;DHT22;4238;48.404;9.498;2022-12-11T11:50:07;0.70;99.90
8402;DHT22;4238;48.404;9.498;2022-12-11T11:52:41;0.70;99.90
8402;DHT22;4238;48.404;9.498;2022-12-11T11:55:15;0.70;99.90
8402;DHT22;4238;48.404;9.498;2022-12-11T11:57:46;0.70;99.90
8402;DHT22;4238;48.404;9.498;2022-12-11T12:00:19;0.80;99.90
8402;DHT22;4238;48.404;9.498;2022-12-11T12:02:47;0.90;1.00
8402;DHT22;4238;48.404;9.498;2022-12-11T12:05:23;1.10;1.00
8402;DHT22;4238;48.404;9.498;2022-12-11T12:08:00;1.40;81.40
8402;DHT22;4238;48.404;9.498;2022-12-11T12:10:31;1.30;21.70
8402;DHT22;4238;48.404;9.498;2022-12-11T12:13:05;1.50;1.00
8402;DHT22;4238;48.404;9.498;2022-12-11T12:15:42;1.80;99.90
8402;DHT22;4238;48.404;9.498;2022-12-11T12:18:19;1.50;99.90
8402;DHT22;4238;48.404;9.498;2022-12-11T12:20:53;1.60;1.00
8402;DHT22;4238;48.404;9.498;2022-12-11T12:23:34;1.60;99.90
8402;DHT22;4238;48.404;9.498;2022-12-11T12:26:08;1.70;99.90
8402;DHT22;4238;48.404;9.498;2022-12-11T12:28:42;1.70;99.90
8402;DHT22;4238;48.404;9.498;2022-12-11T12:31:31;1.70;1.00
8402;DHT22;4238;48.404;9.498;2022-12-11T12:34:08;1.30;1.00
8402;DHT22;4238;48.404;9.498;2022-12-11T12:36:45;1.00;17.90
8402;DHT22;4238;48.404;9.498;2022-12-11T12:39:22;0.70;99.90
8402;DHT22;4238;48.404;9.498;2022-12-11T12:41:57;0.40;1.00
8402;DHT22;4238;48.404;9.498;2022-12-11T12:44:31;0.10;1.00
8402;DHT22;4238;48.404;9.498;2022-12-11T12:47:05;0.00;1.00
8402;DHT22;4238;48.404;9.498;2022-12-11T12:49:39;0.00;1.00
8402;DHT22;4238;48.404;9.498;2022-12-11T12:52:12;0.10;1.00
8402;DHT22;4238;48.404;9.498;2022-12-11T12:54:40;0.10;1.00
8402;DHT22;4238;48.404;9.498;2022-12-11T12:57:08;-0.10;1.00
8402;DHT22;4238;48.404;9.498;2022-12-11T12:59:35;-0.10;1.00
8402;DHT22;4238;48.404;9.498;2022-12-11T13:02:03;0.00;99.90
8402;DHT22;4238;48.404;9.498;2022-12-11T13:04:39;0.10;1.00
8402;DHT22;4238;48.404;9.498;2022-12-11T13:07:15;0.10;99.90
8402;DHT22;4238;48.404;9.498;2022-12-11T13:09:55;0.20;99.90
8402;DHT22;4238;48.404;9.498;2022-12-11T13:12:31;0.20;1.00
8402;DHT22;4238;48.404;9.498;2022-12-11T13:14:59;0.30;1.00
8402;DHT22;4238;48.404;9.498;2022-12-11T13:17:36;0.60;99.90
8402;DHT22;4238;48.404;9.498;2022-12-11T13:20:15;1.10;1.00
8402;DHT22;4238;48.404;9.498;2022-12-11T13:22:50;1.50;1.00
8402;DHT22;4238;48.404;9.498;2022-12-11T13:25:22;1.80;1.00
8402;DHT22;4238;48.404;9.498;2022-12-11T13:27:49;2.10;99.90
8402;DHT22;4238;48.404;9.498;2022-12-11T13:30:25;2.20;1.00
8402;DHT22;4238;48.404;9.498;2022-12-11T13:32:59;2.30;1.00
8402;DHT22;4238;48.404;9.498;2022-12-11T13:35:28;2.40;1.00
8402;DHT22;4238;48.404;9.498;2022-12-11T13:38:02;2.30;88.30
8402;DHT22;4238;48.404;9.498;2022-12-11T13:40:35;2.30;99.90
8402;DHT22;4238;48.404;9.498;2022-12-11T13:43:07;1.90;1.00
8402;DHT22;4238;48.404;9.498;2022-12-11T13:45:43;2.00;1.00
8402;DHT22;4238;48.404;9.498;2022-12-11T13:48:17;1.90;1.00
8402;DHT22;4238;48.404;9.498;2022-12-11T13:50:45;1.70;99.90
8402;DHT22;4238;48.404;9.498;2022-12-11T13:53:14;1.10;1.00
8402;DHT22;4238;48.404;9.498;2022-12-11T13:55:42;1.00;99.90
8402;DHT22;4238;48.404;9.498;2022-12-11T13:58:15;0.50;12.10
8402;DHT22;4238;48.404;9.498;2022-12-11T14:00:53;0.30;1.00
8402;DHT22;4238;48.404;9.498;2022-12-11T14:03:23;0.20;63.00
8402;DHT22;4238;48.404;9.498;2022-12-11T14:05:50;0.20;1.00
8402;DHT22;4238;48.404;9.498;2022-12-11T14:08:21;0.00;1.00
8402;DHT22;4238;48.404;9.498;2022-12-11T14:10:51;-0.20;1.00
8402;DHT22;4238;48.404;9.498;2022-12-11T14:13:22;-0.30;1.00
8402;DHT22;4238;48.404;9.498;2022-12-11T14:15:50;-0.40;99.90
8402;DHT22;4238;48.404;9.498;2022-12-11T14:18:20;-0.50;99.90
8402;DHT22;4238;48.404;9.498;2022-12-11T14:20:53;-0.60;99.90
8402;DHT22;4238;48.404;9.498;2022-12-11T14:23:24;-0.60;99.90
8402;DHT22;4238;48.404;9.498;2022-12-11T14:25:52;-0.80;1.00
8402;DHT22;4238;48.404;9.498;2022-12-11T14:28:20;-0.80;1.00
8402;DHT22;4238;48.404;9.498;2022-12-11T14:30:55;-0.80;1.00
8402;DHT22;4238;48.404;9.498;2022-12-11T14:33:27;-0.80;1.00
8402;DHT22;4238;48.404;9.498;2022-12-11T14:35:55;-0.70;1.00
8402;DHT22;4238;48.404;9.498;2022-12-11T14:38:26;-0.70;1.00
8402;DHT22;4238;48.404;9.498;2022-12-11T14:40:57;-0.50;1.00
8402;DHT22;4238;48.404;9.498;2022-12-11T14:43:27;-0.50;1.00
8402;DHT22;4238;48.404;9.498;2022-12-11T14:45:59;-0.40;1.00
8402;DHT22;4238;48.404;9.498;2022-12-11T14:48:29;-0.50;1.00
8402;DHT22;4238;48.404;9.498;2022-12-11T14:51:00;-0.40;1.00
8402;DHT22;4238;48.404;9.498;2022-12-11T14:53:34;-0.60;1.00
8402;DHT22;4238;48.404;9.498;2022-12-11T14:56:04;-0.60;1.00
8402;DHT22;4238;48.404;9.498;2022-12-11T14:58:37;-0.60;1.00
8402;DHT22;4238;48.404;9.498;2022-12-11T15:01:20;-0.80;1.00
8402;DHT22;4238;48.404;9.498;2022-12-11T15:03:48;-1.20;1.00
8402;DHT22;4238;48.404;9.498;2022-12-11T15:06:23;-1.50;1.00
8402;DHT22;4238;48.404;9.498;2022-12-11T15:08:52;-1.70;1.00
8402;DHT22;4238;48.404;9.498;2022-12-11T15:11:20;-1.90;1.00
8402;DHT22;4238;48.404;9.498;2022-12-11T15:13:51;-2.00;5.10
8402;DHT22;4238;48.404;9.498;2022-12-11T15:16:20;-2.00;1.00
8402;DHT22;4238;48.404;9.498;2022-12-11T15:18:49;-2.10;2.30
8402;DHT22;4238;48.404;9.498;2022-12-11T15:21:17;-2.20;4.60
8402;DHT22;4238;48.404;9.498;2022-12-11T15:23:52;-2.40;1.00
8402;DHT22;4238;48.404;9.498;2022-12-11T15:26:30;-2.60;1.00
8402;DHT22;4238;48.404;9.498;2022-12-11T15:28:59;-2.80;3.10
8402;DHT22;4238;48.404;9.498;2022-12-11T15:31:27;-2.80;1.00
8402;DHT22;4238;48.404;9.498;2022-12-11T15:33:55;-3.00;3.20
8402;DHT22;4238;48.404;9.498;2022-12-11T15:36:24;-3.10;1.00
8402;DHT22;4238;48.404;9.498;2022-12-11T15:38:53;-3.10;2.70
8402;DHT22;4238;48.404;9.498;2022-12-11T15:41:20;-3.10;30.80
8402;DHT22;4238;48.404;9.498;2022-12-11T15:43:49;-3.10;28.60
8402;DHT22;4238;48.404;9.498;2022-12-11T15:46:17;-3.30;8.10
8402;DHT22;4238;48.404;9.498;2022-12-11T15:48:44;-3.50;24.90
8402;DHT22;4238;48.404;9.498;2022-12-11T15:51:11;-3.50;32.90
8402;DHT22;4238;48.404;9.498;2022-12-11T15:53:38;-3.40;17.30
8402;DHT22;4238;48.404;9.498;2022-12-11T15:56:09;-3.60;14.10
8402;DHT22;4238;48.404;9.498;2022-12-11T15:58:39;-3.70;18.60
8402;DHT22;4238;48.404;9.498;2022-12-11T16:01:06;-3.80;14.50
8402;DHT22;4238;48.404;9.498;2022-12-11T16:03:33;-3.90;28.30
8402;DHT22;4238;48.404;9.498;2022-12-11T16:06:00;-4.10;29.70
8402;DHT22;4238;48.404;9.498;2022-12-11T16:08:27;-4.10;32.70
8402;DHT22;4238;48.404;9.498;2022-12-11T16:10:54;-4.10;28.10
8402;DHT22;4238;48.404;9.498;2022-12-11T16:13:22;-4.10;38.60
8402;DHT22;4238;48.404;9.498;2022-12-11T16:15:50;-4.30;47.90
8402;DHT22;4238;48.404;9.498;2022-12-11T16:18:20;-4.30;56.90
8402;DHT22;4238;48.404;9.498;2022-12-11T16:20:48;-4.20;39.70
8402;DHT22;4238;48.404;9.498;2022-12-11T16:23:16;-4.20;56.90
8402;DHT22;4238;48.404;9.498;2022-12-11T16:25:44;-4.20;72.10
8402;DHT22;4238;48.404;9.498;2022-12-11T16:28:12;-4.30;44.00